Time;durP1;ratioP1;P1;durP2;ratioP2;P2;SDS_P1;SDS_P2;PMS_P1;PMS_P2;Temp;Humidity;BMP_temperature;BMP_pressure;BME280_temperature;BME280_humidity;BME280_pressure;Samples;Min_cycle;Max_cycle;Signal;HPM_P1;HPM_P2
2022/05/23 00:01:49;;;;;;;6.43;2.00;;;15.10;99.90;;;;;;5056399;28;20034;-53
2022/05/23 00:04:15;;;;;;;9.68;2.42;;;15.10;99.90;;;;;;5050647;28;20139;-52
2022/05/23 00:06:42;;;;;;;7.93;2.35;;;15.10;99.90;;;;;;5057344;28;20080;-53
2022/05/23 00:09:08;;;;;;;7.07;2.20;;;15.10;99.90;;;;;;5051121;28;20037;-51
2022/05/23 00:11:34;;;;;;;6.75;2.28;;;15.00;99.90;;;;;;5036524;28;20045;-52
2022/05/23 00:14:00;;;;;;;8.65;2.25;;;15.00;99.90;;;;;;5020031;28;20106;-53
2022/05/23 00:16:29;;;;;;;7.82;2.15;;;15.10;99.90;;;;;;5037034;28;20094;-53
2022/05/23 00:18:55;;;;;;;7.18;2.20;;;15.00;99.90;;;;;;5037594;28;20103;-53
2022/05/23 00:21:21;;;;;;;7.70;2.10;;;15.00;99.90;;;;;;5048945;28;20076;-52
2022/05/23 00:23:46;;;;;;;8.85;2.13;;;14.80;99.90;;;;;;5057253;28;20037;-54
2022/05/23 00:26:16;;;;;;;5.13;2.00;;;14.80;99.90;;;;;;5057914;28;20079;-53
2022/05/23 00:28:41;;;;;;;6.75;2.42;;;14.90;99.90;;;;;;5056721;28;20083;-52
2022/05/23 00:31:08;;;;;;;6.85;2.40;;;14.80;99.90;;;;;;5057965;28;20033;-52
2022/05/23 00:36:19;;;;;;;10.27;2.40;;;14.80;99.90;;;;;;5049894;28;20087;-52
2022/05/23 00:38:44;;;;;;;7.63;2.85;;;14.80;99.90;;;;;;5040376;28;20045;-52
2022/05/23 00:44:24;;;;;;;9.25;3.00;;;14.60;99.90;;;;;;5028253;28;20840;-52
2022/05/23 00:46:55;;;;;;;6.05;2.40;;;14.60;99.90;;;;;;5056050;28;20048;-53
2022/05/23 00:49:36;;;;;;;5.30;2.20;;;14.70;99.90;;;;;;5056715;28;20061;-51
2022/05/23 00:52:07;;;;;;;7.13;2.50;;;14.60;99.90;;;;;;5044546;28;20091;-53
2022/05/23 00:54:40;;;;;;;7.82;2.72;;;14.60;99.90;;;;;;5060048;28;20045;-52
2022/05/23 00:57:08;;;;;;;8.63;2.88;;;14.70;99.90;;;;;;5022857;28;20057;-52
2022/05/23 00:59:34;;;;;;;10.43;3.13;;;14.60;99.90;;;;;;5037296;28;20076;-52
2022/05/23 01:02:02;;;;;;;9.40;2.90;;;14.50;99.90;;;;;;5040237;28;20072;-53
2022/05/23 01:04:30;;;;;;;9.05;3.30;;;14.40;99.90;;;;;;5040916;28;20097;-52
2022/05/23 01:06:56;;;;;;;9.85;3.30;;;14.40;99.90;;;;;;5040542;28;20079;-52
2022/05/23 01:09:25;;;;;;;6.65;3.08;;;14.40;99.90;;;;;;5050519;28;20033;-51
2022/05/23 01:11:53;;;;;;;9.50;2.85;;;14.40;99.90;;;;;;5039578;28;20102;-50
2022/05/23 01:14:20;;;;;;;8.05;3.03;;;14.30;99.90;;;;;;5041871;28;20053;-52
2022/05/23 01:16:46;;;;;;;8.88;2.85;;;14.20;99.90;;;;;;5054126;28;20123;-51
2022/05/23 01:19:12;;;;;;;8.70;3.25;;;14.20;99.90;;;;;;5046840;28;20067;-50
2022/05/23 01:21:57;;;;;;;10.23;3.63;;;14.10;99.90;;;;;;5042577;28;20037;-49
2022/05/23 01:24:34;;;;;;;12.40;4.00;;;14.00;99.90;;;;;;5026062;28;20060;-52
2022/05/23 01:27:00;;;;;;;9.60;3.55;;;14.00;99.90;;;;;;5040394;28;20042;-53
2022/05/23 01:29:26;;;;;;;9.45;3.72;;;13.90;99.90;;;;;;5058522;28;20064;-52
2022/05/23 01:31:55;;;;;;;6.93;3.85;;;13.90;99.90;;;;;;5060050;28;20037;-52
2022/05/23 01:34:21;;;;;;;8.25;3.53;;;13.80;99.90;;;;;;5060343;28;20079;-51
2022/05/23 01:36:46;;;;;;;8.77;3.70;;;13.90;99.90;;;;;;5058779;28;20037;-52
2022/05/23 01:39:12;;;;;;;9.15;3.70;;;13.90;99.90;;;;;;5056720;28;20566;-52
2022/05/23 01:41:38;;;;;;;11.30;4.28;;;13.90;99.90;;;;;;5042046;28;20092;-53
2022/05/23 01:44:04;;;;;;;8.32;3.88;;;13.80;99.90;;;;;;5040202;28;20064;-51
2022/05/23 01:46:30;;;;;;;8.02;3.63;;;13.90;99.90;;;;;;5039507;28;20044;-52
2022/05/23 01:48:55;;;;;;;8.35;3.72;;;13.80;99.90;;;;;;5053419;28;20132;-49
2022/05/23 01:51:21;;;;;;;8.90;4.22;;;13.80;99.90;;;;;;5054424;28;20053;-52
2022/05/23 01:53:46;;;;;;;9.40;4.22;;;13.80;99.90;;;;;;5039327;28;20068;-52
2022/05/23 01:56:12;;;;;;;6.68;3.50;;;13.80;99.90;;;;;;5031684;28;20054;-52
2022/05/23 02:01:25;;;;;;;8.13;4.00;;;13.80;99.90;;;;;;5059654;28;21055;-52
2022/05/23 02:03:51;;;;;;;9.45;3.90;;;13.70;99.90;;;;;;5059343;28;20063;-50
2022/05/23 02:06:17;;;;;;;12.63;4.00;;;13.70;99.90;;;;;;5041247;28;20693;-50
2022/05/23 02:08:43;;;;;;;9.25;4.25;;;13.70;99.90;;;;;;5056000;28;20108;-51
2022/05/23 02:11:09;;;;;;;8.32;4.30;;;13.60;99.90;;;;;;5037379;28;20056;-50
2022/05/23 02:13:37;;;;;;;8.77;4.20;;;13.70;99.90;;;;;;5053992;28;20045;-51
2022/05/23 02:16:03;;;;;;;10.15;3.90;;;13.70;99.90;;;;;;5040100;28;20045;-51
2022/05/23 02:18:30;;;;;;;10.35;4.55;;;13.70;99.90;;;;;;5040622;28;20063;-53
2022/05/23 02:20:56;;;;;;;7.95;4.10;;;13.80;99.90;;;;;;5057959;28;20037;-51
2022/05/23 02:23:22;;;;;;;14.88;5.07;;;13.70;99.90;;;;;;5038925;28;20555;-52
2022/05/23 02:25:47;;;;;;;11.85;5.35;;;13.80;99.90;;;;;;5049879;28;20101;-52
2022/05/23 02:28:13;;;;;;;9.45;4.40;;;13.80;99.90;;;;;;5038484;28;20067;-51
2022/05/23 02:30:39;;;;;;;8.50;4.32;;;13.80;99.90;;;;;;5039440;28;20057;-53
2022/05/23 02:33:05;;;;;;;9.20;4.22;;;13.70;99.90;;;;;;5024347;28;20084;-53
2022/05/23 02:35:31;;;;;;;8.30;4.28;;;13.70;99.90;;;;;;5041346;28;20056;-53
2022/05/23 02:37:57;;;;;;;8.70;4.13;;;13.70;99.90;;;;;;5058495;28;20091;-52
2022/05/23 02:40:23;;;;;;;8.23;4.35;;;13.70;99.90;;;;;;5055151;28;20068;-51
2022/05/23 02:42:49;;;;;;;9.68;5.40;;;13.70;99.90;;;;;;5045256;28;20038;-52
2022/05/23 02:45:15;;;;;;;10.90;5.10;;;13.70;99.90;;;;;;5020250;28;20532;-53
2022/05/23 02:47:43;;;;;;;10.68;4.53;;;13.70;99.90;;;;;;5054099;28;20049;-50
2022/05/23 02:50:11;;;;;;;8.52;4.80;;;13.60;99.90;;;;;;5056796;28;20052;-53
2022/05/23 02:52:38;;;;;;;10.65;4.93;;;13.60;99.90;;;;;;5059074;28;20045;-52
2022/05/23 02:55:05;;;;;;;8.63;4.85;;;13.60;99.90;;;;;;5046497;28;20053;-51
2022/05/23 02:57:31;;;;;;;6.97;4.63;;;13.60;99.90;;;;;;5053831;28;20061;-50
2022/05/23 02:59:56;;;;;;;8.65;5.22;;;13.60;99.90;;;;;;5058548;28;20045;-51
2022/05/23 03:05:07;;;;;;;7.53;4.35;;;13.60;99.90;;;;;;5058898;28;20059;-51
2022/05/23 03:07:33;;;;;;;8.80;5.28;;;13.50;99.90;;;;;;5057214;28;20104;-49
2022/05/23 03:09:58;;;;;;;9.45;5.05;;;13.50;99.90;;;;;;5040238;28;20069;-52
2022/05/23 03:12:26;;;;;;;9.93;5.07;;;13.40;99.90;;;;;;5054090;28;20033;-53
2022/05/23 03:14:52;;;;;;;9.88;4.80;;;13.50;99.90;;;;;;5057917;28;20048;-52
2022/05/23 03:17:18;;;;;;;8.75;4.82;;;13.50;99.90;;;;;;5043821;28;20071;-53
2022/05/23 03:19:44;;;;;;;8.57;5.00;;;13.50;99.90;;;;;;5037552;28;20060;-52
2022/05/23 03:27:40;;;;;;;9.38;5.30;;;13.50;99.90;;;;;;5057429;28;20045;-52
2022/05/23 03:30:07;;;;;;;8.52;5.57;;;13.50;99.90;;;;;;5039959;28;20041;-54
2022/05/23 03:32:33;;;;;;;8.55;5.55;;;13.50;99.90;;;;;;5037370;28;20041;-53
2022/05/23 03:34:58;;;;;;;9.02;5.78;;;13.50;99.90;;;;;;5038736;28;20577;-53
2022/05/23 03:37:25;;;;;;;10.70;5.03;;;13.50;99.90;;;;;;5037050;28;20124;-52
2022/05/23 03:39:50;;;;;;;10.85;5.85;;;13.50;99.90;;;;;;5055433;28;20045;-53
2022/05/23 03:42:17;;;;;;;9.93;5.60;;;13.50;99.90;;;;;;5050284;28;20465;-52
2022/05/23 03:44:43;;;;;;;12.13;6.00;;;13.60;99.90;;;;;;5037801;28;20060;-51
2022/05/23 03:47:10;;;;;;;9.70;5.28;;;13.60;99.90;;;;;;5053783;28;20048;-52
2022/05/23 03:49:36;;;;;;;11.30;5.95;;;13.50;99.90;;;;;;5057299;28;20069;-51
2022/05/23 03:52:02;;;;;;;9.27;4.82;;;13.60;99.90;;;;;;5045430;28;20409;-53
2022/05/23 03:54:27;;;;;;;11.70;5.82;;;13.60;99.90;;;;;;5040692;28;20042;-53
2022/05/23 03:57:00;;;;;;;8.52;4.95;;;13.70;99.90;;;;;;5056670;28;20060;-49
2022/05/23 03:59:27;;;;;;;10.25;5.25;;;13.70;99.90;;;;;;5053304;28;20055;-52
2022/05/23 04:01:56;;;;;;;9.18;5.30;;;13.70;99.90;;;;;;5037716;28;20069;-52
2022/05/23 04:04:22;;;;;;;9.48;5.00;;;13.70;99.90;;;;;;5038317;28;20051;-52
2022/05/23 04:06:48;;;;;;;8.25;5.18;;;13.80;99.90;;;;;;5057234;28;20066;-54
2022/05/23 04:09:14;;;;;;;10.98;5.50;;;13.80;99.90;;;;;;5057987;28;20076;-52
2022/05/23 04:11:40;;;;;;;11.10;5.38;;;13.90;99.90;;;;;;5056805;28;20041;-53
2022/05/23 04:14:05;;;;;;;11.38;6.18;;;13.80;99.90;;;;;;5059002;28;20493;-53
2022/05/23 04:16:31;;;;;;;9.45;5.45;;;13.80;99.90;;;;;;5051396;28;20970;-52
2022/05/23 04:18:57;;;;;;;9.57;5.07;;;13.80;99.90;;;;;;5052951;28;20052;-54
2022/05/23 04:21:24;;;;;;;11.75;6.30;;;13.90;99.90;;;;;;5051464;28;20093;-53
2022/05/23 04:23:50;;;;;;;8.82;5.22;;;13.80;99.90;;;;;;5040741;28;20037;-52
2022/05/23 04:26:15;;;;;;;11.20;5.10;;;13.80;99.90;;;;;;5045602;28;20049;-53
2022/05/23 04:28:41;;;;;;;11.18;5.40;;;13.80;99.90;;;;;;5055939;28;20079;-53
2022/05/23 04:31:08;;;;;;;8.50;5.35;;;13.80;99.90;;;;;;5043643;28;20092;-53
2022/05/23 04:36:18;;;;;;;11.35;6.10;;;13.90;99.90;;;;;;5060916;28;20056;-53
2022/05/23 04:38:43;;;;;;;10.88;5.82;;;13.90;99.90;;;;;;5061138;28;20045;-51
2022/05/23 04:41:10;;;;;;;9.30;4.85;;;13.90;99.90;;;;;;5060254;28;20040;-52
2022/05/23 04:43:36;;;;;;;9.43;5.18;;;14.00;99.90;;;;;;5061446;28;20102;-52
2022/05/23 04:46:01;;;;;;;10.73;5.82;;;14.00;99.90;;;;;;5057452;28;20037;-52
2022/05/23 04:51:11;;;;;;;7.35;4.75;;;14.20;99.90;;;;;;5060981;28;20080;-52
2022/05/23 04:53:37;;;;;;;10.27;5.13;;;14.30;99.90;;;;;;5047088;28;20045;-52
2022/05/23 04:56:03;;;;;;;8.23;4.43;;;14.40;99.90;;;;;;5034241;28;20072;-52
2022/05/23 04:58:28;;;;;;;9.35;4.93;;;14.50;99.90;;;;;;5032969;28;20106;-51
2022/05/23 05:00:54;;;;;;;8.85;4.80;;;14.60;99.90;;;;;;5061094;28;20045;-51
2022/05/23 05:03:20;;;;;;;12.40;5.20;;;14.70;99.90;;;;;;5059793;28;20052;-52
2022/05/23 05:05:46;;;;;;;8.48;4.80;;;14.70;99.90;;;;;;5060724;28;20047;-52
2022/05/23 05:08:12;;;;;;;7.97;4.93;;;14.80;99.90;;;;;;5058823;28;20045;-53
2022/05/23 05:10:38;;;;;;;9.25;4.80;;;14.70;99.90;;;;;;5040056;28;20037;-53
2022/05/23 05:13:04;;;;;;;8.93;5.03;;;14.80;99.90;;;;;;5040738;28;20048;-52
2022/05/23 05:15:30;;;;;;;10.25;5.20;;;14.80;99.90;;;;;;5039672;28;20420;-53
2022/05/23 05:17:56;;;;;;;10.73;5.00;;;15.00;99.90;;;;;;5054742;28;20045;-51
2022/05/23 05:20:23;;;;;;;9.35;5.28;;;15.00;99.90;;;;;;5044675;28;20045;-52
2022/05/23 05:22:50;;;;;;;9.65;4.78;;;15.00;99.90;;;;;;5047356;28;20070;-53
2022/05/23 05:25:19;;;;;;;10.15;4.90;;;14.90;99.90;;;;;;5059598;28;20049;-50
2022/05/23 05:27:45;;;;;;;10.25;5.15;;;14.80;99.90;;;;;;5057271;28;20395;-53
2022/05/23 05:30:15;;;;;;;9.77;5.07;;;14.90;99.90;;;;;;5054908;28;20114;-52
2022/05/23 05:32:45;;;;;;;12.02;4.93;;;14.90;99.90;;;;;;5041186;28;20048;-52
2022/05/23 05:35:32;;;;;;;11.35;5.03;;;14.90;99.90;;;;;;5057153;28;20094;-50
2022/05/23 05:38:20;;;;;;;12.45;5.60;;;15.00;99.90;;;;;;5052131;28;20049;-52
2022/05/23 05:40:52;;;;;;;11.43;5.53;;;14.90;99.90;;;;;;5033882;28;20516;-51
2022/05/23 05:43:29;;;;;;;;;;;14.90;99.90;;;;;;5057605;28;20048;-52
2022/05/23 05:46:00;;;;;;;11.73;5.75;;;14.90;99.90;;;;;;5055316;28;19931;-51
2022/05/23 05:48:27;;;;;;;10.77;5.38;;;15.00;99.90;;;;;;5056509;28;20060;-52
2022/05/23 05:50:53;;;;;;;11.48;5.65;;;15.00;99.90;;;;;;5053232;28;20444;-53
2022/05/23 05:53:28;;;;;;;11.45;5.53;;;15.10;99.90;;;;;;5036096;28;20049;-52
2022/05/23 05:55:54;;;;;;;11.80;5.70;;;15.10;99.90;;;;;;5047252;28;20057;-52
2022/05/23 05:58:19;;;;;;;9.68;5.55;;;15.10;99.90;;;;;;5036692;28;20519;-52
2022/05/23 06:00:45;;;;;;;10.15;5.75;;;15.20;99.90;;;;;;5051787;28;20175;-51
2022/05/23 06:03:11;;;;;;;10.63;5.88;;;15.30;99.90;;;;;;5048106;28;20090;-51
2022/05/23 06:11:24;;;;;;;9.60;6.22;;;15.70;99.90;;;;;;5040035;28;20255;-52
2022/05/23 06:13:51;;;;;;;11.18;6.05;;;15.80;99.90;;;;;;5056469;28;20041;-52
2022/05/23 06:16:17;;;;;;;8.32;5.60;;;16.00;99.90;;;;;;5036178;28;20046;-52
2022/05/23 06:18:43;;;;;;;10.55;5.28;;;16.10;99.90;;;;;;5035683;28;20598;-48
2022/05/23 06:21:09;;;;;;;12.38;7.32;;;16.10;99.90;;;;;;5035872;28;20532;-48
2022/05/23 06:23:36;;;;;;;11.02;5.72;;;16.20;99.90;;;;;;5042317;28;20041;-52
2022/05/23 06:26:02;;;;;;;10.88;5.47;;;16.40;99.90;;;;;;5053905;28;20050;-51
2022/05/23 06:28:28;;;;;;;9.50;5.20;;;16.40;99.90;;;;;;5040001;28;20094;-53
2022/05/23 06:30:56;;;;;;;10.52;4.90;;;16.60;99.90;;;;;;5036051;28;20045;-53
2022/05/23 06:33:23;;;;;;;10.30;5.72;;;16.60;99.90;;;;;;5042896;28;20076;-53
2022/05/23 06:35:48;;;;;;;11.18;5.72;;;16.70;99.90;;;;;;5046502;28;20075;-53
2022/05/23 06:38:15;;;;;;;13.70;6.03;;;16.70;99.90;;;;;;5044330;28;20049;-53
2022/05/23 06:40:41;;;;;;;11.05;5.30;;;16.70;99.90;;;;;;5054262;28;20049;-54
2022/05/23 06:43:06;;;;;;;10.15;5.45;;;16.70;99.90;;;;;;5035930;28;20053;-53
2022/05/23 06:45:32;;;;;;;11.02;5.80;;;16.70;99.90;;;;;;5052220;28;20111;-52
2022/05/23 06:47:58;;;;;;;9.93;5.68;;;16.70;99.90;;;;;;5056195;28;20549;-54
2022/05/23 06:50:23;;;;;;;12.68;5.60;;;16.70;99.90;;;;;;5041623;28;20044;-53
2022/05/23 06:52:49;;;;;;;10.30;5.63;;;16.80;99.90;;;;;;5035441;28;20064;-55
2022/05/23 06:55:15;;;;;;;13.85;6.30;;;16.80;99.90;;;;;;5022915;28;20041;-53
2022/05/23 06:57:40;;;;;;;9.63;4.95;;;16.80;99.90;;;;;;5051821;28;20056;-53
2022/05/23 07:00:09;;;;;;;10.68;5.97;;;16.60;99.90;;;;;;5055672;28;20116;-53
2022/05/23 07:02:36;;;;;;;13.80;5.95;;;16.70;99.90;;;;;;5036535;28;20124;-50
2022/05/23 07:13:16;;;;;;;11.35;5.30;;;16.80;99.90;;;;;;5055560;28;20200;-53
2022/05/23 07:15:47;;;;;;;12.30;5.80;;;16.80;99.90;;;;;;5054018;28;20037;-53
2022/05/23 07:18:13;;;;;;;12.65;5.95;;;16.90;99.90;;;;;;5055218;28;20134;-52
2022/05/23 07:20:40;;;;;;;10.25;5.93;;;17.00;99.90;;;;;;5054575;28;20059;-51
2022/05/23 07:23:06;;;;;;;13.45;6.35;;;17.00;99.90;;;;;;5054188;28;20071;-49
2022/05/23 07:25:32;;;;;;;11.75;5.55;;;17.10;99.90;;;;;;5055150;28;20045;-52
2022/05/23 07:27:58;;;;;;;10.80;5.55;;;17.30;99.90;;;;;;5042259;28;20076;-53
2022/05/23 07:30:24;;;;;;;12.55;5.80;;;17.40;99.90;;;;;;5055165;28;20616;-49
2022/05/23 07:32:49;;;;;;;9.25;6.35;;;17.30;99.90;;;;;;5039817;28;20075;-52
2022/05/23 07:35:18;;;;;;;12.93;6.20;;;17.30;99.90;;;;;;5035073;28;20080;-50
2022/05/23 07:37:44;;;;;;;10.40;5.63;;;17.40;99.90;;;;;;5044808;28;20094;-53
2022/05/23 07:40:11;;;;;;;12.52;5.80;;;17.40;99.90;;;;;;5041475;28;20045;-53
2022/05/23 07:42:37;;;;;;;9.65;5.97;;;17.50;99.90;;;;;;5029070;28;20065;-51
2022/05/23 07:45:04;;;;;;;10.70;5.82;;;17.40;99.90;;;;;;5053910;28;20393;-50
2022/05/23 07:47:30;;;;;;;11.05;6.63;;;17.50;99.90;;;;;;5053109;28;20070;-52
2022/05/23 07:49:55;;;;;;;11.45;5.95;;;17.70;99.90;;;;;;5056622;28;20048;-53
2022/05/23 07:52:21;;;;;;;11.73;5.75;;;17.80;99.90;;;;;;5058887;28;20048;-52
2022/05/23 08:00:31;;;;;;;8.75;6.00;;;17.90;99.90;;;;;;5058748;28;20068;-52
2022/05/23 08:03:05;;;;;;;10.57;5.38;;;17.90;99.90;;;;;;5045393;28;20122;-53
2022/05/23 08:05:32;;;;;;;11.15;6.05;;;18.20;99.90;;;;;;5028573;28;20421;-55
2022/05/23 08:07:57;;;;;;;10.20;5.80;;;18.20;99.90;;;;;;5047984;28;20059;-54
2022/05/23 08:10:25;;;;;;;8.80;6.03;;;18.20;99.90;;;;;;5037799;28;20084;-53
2022/05/23 08:12:55;;;;;;;11.15;5.63;;;18.50;99.90;;;;;;5054506;28;20076;-51
2022/05/23 08:15:23;;;;;;;12.38;5.65;;;18.50;99.90;;;;;;5054810;28;20080;-54
2022/05/23 08:17:48;;;;;;;11.60;5.85;;;18.70;99.90;;;;;;5038809;28;20046;-53
2022/05/23 08:20:15;;;;;;;10.75;5.82;;;18.70;99.90;;;;;;5037371;28;20064;-53
2022/05/23 08:22:41;;;;;;;11.23;6.20;;;19.00;99.90;;;;;;5037989;28;20045;-52
2022/05/23 08:25:07;;;;;;;12.20;5.60;;;19.00;99.90;;;;;;5055288;28;20060;-52
2022/05/23 08:27:33;;;;;;;10.40;5.90;;;19.00;99.90;;;;;;5057638;28;20049;-53
2022/05/23 08:29:59;;;;;;;10.45;6.30;;;19.10;99.90;;;;;;5058653;28;20095;-53
2022/05/23 08:32:25;;;;;;;9.50;6.32;;;19.20;99.90;;;;;;5057421;28;20936;-52
2022/05/23 08:34:52;;;;;;;11.35;5.30;;;19.20;99.90;;;;;;5048933;28;20461;-51
2022/05/23 08:37:17;;;;;;;9.82;5.78;;;19.50;99.90;;;;;;5037134;28;20098;-55
2022/05/23 08:39:43;;;;;;;10.68;5.85;;;19.50;99.90;;;;;;5038159;28;20072;-53
2022/05/23 08:42:30;;;;;;;13.98;6.20;;;19.70;99.90;;;;;;5046020;28;20048;-52
2022/05/23 08:45:15;;;;;;;10.90;5.82;;;19.60;99.90;;;;;;5057517;28;20063;-51
2022/05/23 08:47:53;;;;;;;11.38;6.00;;;19.50;99.90;;;;;;5041146;28;20049;-52
2022/05/23 08:50:43;;;;;;;12.02;6.63;;;19.70;99.90;;;;;;5049314;28;20085;-53
2022/05/23 08:53:15;;;;;;;11.55;6.30;;;19.60;99.90;;;;;;5047814;28;20045;-51
2022/05/23 08:55:46;;;;;;;10.02;6.32;;;19.60;99.90;;;;;;5057747;28;20063;-50
2022/05/23 08:58:34;;;;;;;11.77;5.97;;;19.90;99.90;;;;;;5055217;28;20052;-52
2022/05/23 09:01:05;;;;;;;11.77;6.53;;;20.10;99.90;;;;;;5038313;28;20080;-52
2022/05/23 09:03:36;;;;;;;11.48;6.00;;;20.30;99.90;;;;;;5056859;28;20052;-52
2022/05/23 09:06:06;;;;;;;11.93;6.13;;;20.60;99.90;;;;;;5056900;28;20037;-54
2022/05/23 09:08:38;;;;;;;10.80;6.35;;;20.60;99.90;;;;;;5057386;28;20141;-55
2022/05/23 09:11:08;;;;;;;11.32;6.18;;;20.70;99.90;;;;;;5052504;28;20037;-53
2022/05/23 09:13:38;;;;;;;11.90;5.82;;;20.50;99.90;;;;;;5044987;28;20796;-53
2022/05/23 09:16:05;;;;;;;11.00;5.65;;;20.80;99.90;;;;;;5036486;28;20041;-55
2022/05/23 09:18:39;;;;;;;12.82;6.82;;;20.80;99.90;;;;;;5037792;28;20049;-54
2022/05/23 09:21:05;;;;;;;10.95;6.43;;;20.90;99.90;;;;;;5050536;28;20045;-55
2022/05/23 09:23:40;;;;;;;11.50;6.32;;;21.00;99.90;;;;;;5058367;28;20048;-55
2022/05/23 09:26:16;;;;;;;9.10;6.18;;;21.10;99.90;;;;;;5040634;28;20500;-54
2022/05/23 09:28:42;;;;;;;12.73;5.78;;;21.20;99.90;;;;;;5052038;28;20654;-54
2022/05/23 09:31:14;;;;;;;11.27;5.72;;;21.10;99.90;;;;;;5051291;28;20101;-54
2022/05/23 09:33:46;;;;;;;13.20;5.93;;;21.30;99.90;;;;;;5040017;28;20045;-59
2022/05/23 09:36:31;;;;;;;10.38;5.80;;;21.30;99.90;;;;;;5056310;28;20048;-54
2022/05/23 09:39:04;;;;;;;9.77;6.30;;;21.40;99.90;;;;;;5060252;28;20078;-54
2022/05/23 09:47:44;;;;;;;10.85;6.20;;;21.60;99.90;;;;;;5058943;28;20122;-55
2022/05/23 09:50:10;;;;;;;10.60;6.32;;;21.50;99.90;;;;;;5016665;28;20085;-53
2022/05/23 09:52:50;;;;;;;10.98;5.82;;;21.60;99.90;;;;;;5031125;28;20138;-54
2022/05/23 09:55:28;;;;;;;12.73;6.25;;;21.90;99.90;;;;;;5044865;28;20045;-53
2022/05/23 09:57:56;;;;;;;11.55;5.47;;;21.90;99.90;;;;;;5058932;28;20130;-55
2022/05/23 10:00:22;;;;;;;10.65;5.75;;;21.90;99.90;;;;;;5055693;28;20041;-55
2022/05/23 10:02:59;;;;;;;10.63;5.53;;;22.00;99.90;;;;;;5058083;28;20087;-55
2022/05/23 10:05:33;;;;;;;12.10;5.72;;;22.00;99.90;;;;;;5058873;28;20072;-54
2022/05/23 10:08:05;;;;;;;9.15;4.25;;;21.90;99.90;;;;;;5059163;28;20114;-54
2022/05/23 10:10:53;;;;;;;8.80;4.60;;;22.00;99.90;;;;;;5059046;28;20055;-53
2022/05/23 10:13:38;;;;;;;9.57;5.28;;;22.10;99.90;;;;;;5058808;28;20049;-54
2022/05/23 10:16:44;;;;;;;7.82;4.75;;;22.10;99.90;;;;;;5058288;28;20484;-53
2022/05/23 10:19:11;;;;;;;14.15;4.72;;;22.10;99.90;;;;;;5028901;28;20057;-54
2022/05/23 10:21:40;;;;;;;11.38;5.05;;;22.20;99.90;;;;;;5059270;28;20044;-53
2022/05/23 10:24:26;;;;;;;9.88;3.85;;;22.20;99.90;;;;;;5043538;28;20049;-55
2022/05/23 10:27:01;;;;;;;10.02;4.13;;;22.20;99.90;;;;;;5041375;28;20049;-54
2022/05/23 10:29:41;;;;;;;11.40;4.20;;;22.40;99.90;;;;;;5043403;28;20032;-54
2022/05/23 10:32:10;;;;;;;8.25;3.97;;;23.00;99.90;;;;;;5058311;28;20044;-55
2022/05/23 10:34:40;;;;;;;7.57;4.25;;;23.30;99.90;;;;;;5048528;28;20076;-54
2022/05/23 10:37:09;;;;;;;9.32;3.95;;;23.30;99.90;;;;;;5054030;28;20073;-55
2022/05/23 10:43:11;;;;;;;9.95;3.83;;;23.70;99.90;;;;;;5034925;28;20110;-53
2022/05/23 10:45:47;;;;;;;7.78;3.30;;;23.90;99.90;;;;;;5013106;28;20113;-54
2022/05/23 10:48:41;;;;;;;7.50;2.88;;;24.10;99.90;;;;;;5058691;28;20041;-54
2022/05/23 10:51:14;;;;;;;7.40;3.30;;;24.30;99.90;;;;;;5058743;28;20040;-54
2022/05/23 10:54:06;;;;;;;8.38;3.38;;;24.30;99.90;;;;;;5057817;28;20048;-54
2022/05/23 10:56:49;;;;;;;8.65;3.80;;;24.40;99.90;;;;;;5055187;28;20037;-55
2022/05/23 10:59:16;;;;;;;6.95;2.97;;;24.40;99.90;;;;;;5057180;28;20231;-54
2022/05/23 11:01:51;;;;;;;6.47;2.83;;;24.40;99.90;;;;;;5058173;28;20049;-54
2022/05/23 11:04:35;;;;;;;6.82;2.80;;;24.50;99.90;;;;;;5058401;28;20045;-56
2022/05/23 11:07:18;;;;;;;6.97;3.10;;;24.30;99.90;;;;;;5049031;28;20049;-55
2022/05/23 11:10:06;;;;;;;9.15;3.50;;;24.20;99.90;;;;;;5057716;28;20049;-54
2022/05/23 11:12:58;;;;;;;8.30;3.17;;;24.10;99.90;;;;;;5042464;28;20565;-55
2022/05/23 11:15:29;;;;;;;9.35;3.45;;;24.20;99.90;;;;;;5057282;28;20049;-55
2022/05/23 11:18:11;;;;;;;8.48;3.30;;;24.20;99.90;;;;;;5058626;28;20075;-55
2022/05/23 11:20:39;;;;;;;7.07;2.92;;;24.40;99.90;;;;;;5057917;28;20041;-54
2022/05/23 11:23:45;;;;;;;6.90;2.70;;;24.50;99.90;;;;;;5057760;28;20049;-57
2022/05/23 11:26:24;;;;;;;9.23;3.47;;;24.60;99.90;;;;;;5038889;28;20068;-54
2022/05/23 11:34:55;;;;;;;6.82;3.10;;;24.60;99.90;;;;;;5058484;28;20048;-54
2022/05/23 11:40:10;;;;;;;8.43;2.85;;;24.80;99.90;;;;;;5052142;28;20089;-54
2022/05/23 11:42:49;;;;;;;6.60;2.90;;;24.70;99.90;;;;;;5042039;28;20065;-54
2022/05/23 11:48:39;;;;;;;7.90;2.65;;;25.00;99.90;;;;;;5054261;28;20082;-53
2022/05/23 11:51:23;;;;;;;6.65;2.63;;;24.90;99.90;;;;;;5058196;28;20067;-54
2022/05/23 11:54:00;;;;;;;6.60;2.58;;;24.80;99.90;;;;;;5057028;28;20053;-55
2022/05/23 11:56:57;;;;;;;7.78;2.70;;;24.90;99.90;;;;;;5058284;28;20128;-56
2022/05/23 11:59:25;;;;;;;7.10;2.47;;;24.90;99.90;;;;;;5057634;28;20057;-55
2022/05/23 12:02:10;;;;;;;7.40;2.88;;;25.20;99.90;;;;;;5054513;28;20053;-55
2022/05/23 12:04:47;;;;;;;7.38;2.95;;;25.20;99.90;;;;;;5041191;28;20057;-54
2022/05/23 12:07:31;;;;;;;8.20;2.70;;;25.20;99.90;;;;;;5055979;28;20045;-54
2022/05/23 12:10:21;;;;;;;6.28;2.00;;;25.20;99.90;;;;;;5037972;28;20047;-55
2022/05/23 12:12:53;;;;;;;7.35;2.65;;;25.40;99.90;;;;;;5055207;28;20401;-54
2022/05/23 12:15:44;;;;;;;5.63;2.30;;;25.20;99.60;;;;;;5047282;28;20044;-54
2022/05/23 12:18:29;;;;;;;6.38;2.47;;;24.90;99.30;;;;;;5037815;28;20052;-55
2022/05/23 12:21:00;;;;;;;7.30;2.45;;;24.90;99.90;;;;;;5051686;28;20041;-55
2022/05/23 12:23:39;;;;;;;7.22;2.53;;;24.70;99.60;;;;;;5057277;28;20066;-54
2022/05/23 12:26:29;;;;;;;6.95;2.40;;;24.60;99.90;;;;;;5042835;28;20049;-53
2022/05/23 12:29:00;;;;;;;5.43;2.15;;;24.20;99.90;;;;;;5037244;28;20041;-54
2022/05/23 12:31:33;;;;;;;8.30;2.47;;;24.20;99.90;;;;;;5037342;28;20067;-55
2022/05/23 12:34:01;;;;;;;6.82;2.17;;;24.10;99.90;;;;;;5037778;28;20128;-55
2022/05/23 12:36:32;;;;;;;6.63;2.40;;;24.00;99.90;;;;;;5038834;28;20057;-54
2022/05/23 12:39:23;;;;;;;6.90;2.58;;;24.00;99.90;;;;;;5046947;28;20032;-54
2022/05/23 12:42:04;;;;;;;5.00;2.05;;;24.00;99.90;;;;;;5050306;28;20041;-54
2022/05/23 12:44:33;;;;;;;7.10;2.72;;;24.10;99.90;;;;;;5040971;28;20542;-53
2022/05/23 12:47:09;;;;;;;8.80;2.60;;;24.10;99.90;;;;;;5041274;28;20474;-54
2022/05/23 12:50:00;;;;;;;6.50;1.90;;;24.20;99.90;;;;;;5040346;28;20045;-52
2022/05/23 12:52:30;;;;;;;6.45;2.00;;;24.00;99.90;;;;;;5054388;28;20042;-55
2022/05/23 12:55:13;;;;;;;8.07;1.92;;;24.00;99.90;;;;;;5046623;28;20059;-53
2022/05/23 12:58:00;;;;;;;4.85;2.00;;;24.10;99.90;;;;;;5058764;28;20113;-55
2022/05/23 13:00:38;;;;;;;7.18;2.50;;;24.10;99.90;;;;;;5061130;28;20055;-53
2022/05/23 13:03:26;;;;;;;4.85;2.10;;;24.10;99.90;;;;;;5059908;28;20523;-55
2022/05/23 13:06:16;;;;;;;6.13;2.00;;;24.10;99.90;;;;;;5060591;28;20063;-55
2022/05/23 13:08:51;;;;;;;6.90;2.20;;;24.10;99.90;;;;;;5061205;28;20696;-54
2022/05/23 13:11:23;;;;;;;5.30;2.00;;;24.20;99.90;;;;;;5054822;28;20037;-55
2022/05/23 13:13:50;;;;;;;7.13;2.22;;;24.00;99.90;;;;;;5054670;28;20041;-54
2022/05/23 13:16:29;;;;;;;5.75;2.28;;;23.90;99.90;;;;;;5060309;28;20108;-53
2022/05/23 13:24:53;;;;;;;10.93;2.67;;;23.60;99.90;;;;;;5049855;28;20048;-55
2022/05/23 13:27:24;;;;;;;6.47;2.30;;;23.50;99.90;;;;;;5045009;28;20437;-54
2022/05/23 13:30:17;;;;;;;8.57;3.17;;;23.50;99.90;;;;;;5040415;28;20108;-54
2022/05/23 13:33:06;;;;;;;7.82;2.70;;;23.40;99.90;;;;;;5018606;28;20057;-54
2022/05/23 13:35:32;;;;;;;7.40;3.22;;;23.30;99.90;;;;;;5044379;28;20525;-54
2022/05/23 13:38:17;;;;;;;8.02;3.97;;;23.20;99.90;;;;;;5059982;28;20041;-54
2022/05/23 13:40:51;;;;;;;7.97;2.72;;;23.10;99.90;;;;;;5058260;28;20112;-56
2022/05/23 13:43:25;;;;;;;12.27;3.47;;;23.00;99.90;;;;;;5054569;28;20051;-54
2022/05/23 13:46:13;;;;;;;6.72;2.78;;;22.90;99.90;;;;;;5045220;28;20049;-54
2022/05/23 13:48:44;;;;;;;6.95;2.83;;;22.90;99.90;;;;;;5059371;28;20084;-54
2022/05/23 13:51:18;;;;;;;7.40;2.67;;;23.00;99.90;;;;;;5045046;28;20037;-54
2022/05/23 13:53:52;;;;;;;8.25;2.67;;;23.00;99.90;;;;;;5045442;28;20047;-54
2022/05/23 13:56:18;;;;;;;6.47;2.63;;;23.00;99.90;;;;;;5060152;28;20048;-55
2022/05/23 13:58:55;;;;;;;10.15;3.00;;;23.10;99.90;;;;;;5057134;28;20053;-55
2022/05/23 14:01:29;;;;;;;7.53;3.00;;;23.10;99.90;;;;;;5059441;28;20045;-54
2022/05/23 14:04:09;;;;;;;6.82;3.10;;;23.20;99.90;;;;;;5059773;28;20123;-54
2022/05/23 14:06:43;;;;;;;6.72;2.65;;;23.30;99.90;;;;;;5058765;28;20045;-55
2022/05/23 14:09:11;;;;;;;7.03;3.00;;;23.40;99.90;;;;;;5059880;28;20053;-54
2022/05/23 14:11:47;;;;;;;7.05;2.58;;;23.50;99.90;;;;;;5058679;28;20513;-54